Alagir, Russia
Current Conditions -  °F | °C
As of 4:30 PM on Monday 26 Jan 2015 (Local Time) from URMO Reporting Station
Broken Clouds Broken Clouds  
Wind Chill: 32°   Ceiling: 14000
Heat Index: 37°   Visibility: 6mi
Dew Point: 32°   Wind: 7mph
Humidity: 81%   Direction: 40°NE
Pressure: 30.06"   Gusts: NA
Location:  42.97°N, 44.21°E
Report Text: URMO 261330Z 04003MPS 9999 BKN140 03/M00 Q1018 NOSIG RMKQFE720/0960 SC070
Loading
Personal Weather Stations






























Interactive Weather Map New forecast layout! Learn more

10-Day Weather Forecast

Advertisements
Track Severe Weather on mobile